Historyczne dane pomiarowe

Dodano dane terminowe – wersja testowa.

Dane z okresu 1951-2019

Wersja bazy: 1.34 [2019-03-16, lista zmian], aktualizacja planowana na 2019-04-15

Dane meteo z obszaru Polski uzyskane na podstawie danych udostępnionych przez Instytut Meteorologii i Gospodarki Wodnej – Państwowy Instytut Badawczy.

 

Wybierz Datę:    

       

TemperaturaWilgotnośćWiatrCiśnienieOpadyŚniegCzas trwania zjawisk
 Stacja t tx tn tng RH VA  wxwx mslp ppp RRR   cm mm wxwxwxwxwxwxwx
1970-05-15 8.6 15.3 5.8--- 5.0 2.7---- 1.3------------
1970-05-16 5.6 10.7 2.6--- 1.7 2.7---- 0.0------------
1970-05-17 6.7 11.6 1.3--- 0.3 2.7---- 0.0------------
1970-05-18 9.9 17.1 2.3--- 3.3 2.7---- 0.0------------
1970-05-19 10.0 12.4 5.0--- 7.7 4.3---- 1.6------------
1970-05-20 8.3 11.6 5.8--- 4.7 4.0---- 0.0------------
1970-05-21 9.5 13.7 7.0--- 6.7 5.7---- 1.2------------
1970-05-22 8.4 13.0 6.8--- 4.0 4.7---- 0.0------------
1970-05-23 7.4 11.2 5.9--- 5.3 2.7---- 0.0------------
1970-05-24 7.8 12.3 2.6--- 0.7 2.3---- 0.0------------
1970-05-25 11.2 19.1 3.4--- 3.3 2.7---- 0.0------------
1970-05-26 10.2 17.5 7.2--- 6.3 2.3---- 4.6------------
1970-05-27 9.0 10.4 7.3--- 8.0 1.3---- 7.9------------
1970-05-28 10.4 16.0 8.2--- 6.3 0.0---- 7.4------------
1970-05-29 10.0 12.5 6.8--- 8.0 0.0---- 6.5------------
1970-05-30 9.4 12.2 6.6--- 8.0 0.7---- 3.5------------
1970-05-31 9.9 13.0 7.8--- 3.0 2.3---- 0.0------------
1970-06-01 8.0 11.3 6.8--- 7.3 3.7---- 1.5------------
1970-06-02 8.9 10.7 7.0--- 8.0 3.7---- 0.6------------
1970-06-03 9.6 14.3 5.5--- 2.3 2.7---- 0.0------------
1970-06-04 11.4 14.9 2.4--- 5.3 4.0---- 0.0------------
1970-06-05 16.0 21.6 11.6--- 3.7 3.0---- 2.6------------
1970-06-06 15.1 20.6 10.4--- 5.0 3.0---- 0.0------------
1970-06-07 17.8 23.6 9.6--- 2.3 2.7---- 1.4------------
1970-06-08 19.2 25.1 11.4--- 3.7 2.3---- 0.0------------
1970-06-09 17.3 24.4 11.7--- 5.0 1.3---- 1.5------------
1970-06-10 17.9 24.2 12.7--- 5.0 1.0---- 0.0------------
1970-06-11 16.7 22.5 12.6--- 4.0 3.3---- 0.0------------
1970-06-12 11.2 18.8 6.8--- 3.7 5.3---- 7.6------------
1970-06-13 7.8 9.2 5.8--- 7.3 6.7---- 7.7------------
529.9 ms

 

Źródłem pochodzenia danych jest Instytut Meteorologii i Gospodarki Wodnej – Państwowy Instytut Badawczy. Dane Instytutu Meteorologii i Gospodarki Wodnej – Państwowego Instytutu Badawczego zostały przetworzone.

Dane źródłowe można odnaleźć na stronie https://dane.imgw.pl